KFSI/FSI METAR and TAF weather

Enter ICAO airport designator
Station Type Date Time Source
KFSI METAR 2020/10/29 16:01 UTC NOAA

KFSI 291601Z AUTO 36018G27KT 10SM SCT021 09/05 A3013 RMK AO2 SLP206 $


Station Type Date Time Source
KFSI Decoded METAR 2020/10/29 16:01 UTC NOAA

Fort Sill, OK, United States (KFSI) 34-36N 098-24W 360M
Oct 29, 2020 - 12:01 PM EDT / 2020.10.29 1601 UTC
Wind: from the N (360 degrees) at 21 MPH (18 KT) gusting to 31 MPH (27 KT):0
Visibility: 10 mile(s):0
Sky conditions: partly cloudy
Temperature: 48 F (9 C)
Dew Point: 41 F (5 C)
Relative Humidity: 75%
Pressure (altimeter): 30.13 in. Hg (1020 hPa)
ob: KFSI 291601Z AUTO 36018G27KT 10SM SCT021 09/05 A3013 RMK AO2 SLP206
cycle: 16

Station Type Date Time Source
KFSI TAF 2020/10/29 13:09 UTC NOAA

TAF KFSI 291300Z 2913/3019 35020G25KT 9999 SCT015 BKN023 510002 QNH2993INS
TEMPO 2913/2918 35030G35KT
BECMG 2917/2918 36010G20KT 9999 SKC QNH3012INS
BECMG 2921/2922 36009KT 9999 SKC QNH3015INS
BECMG 3005/3006 24006KT 9999 SKC QNH2023INS
BECMG 3016/3017 20010G15KT 9999 SKC QNH3027INS TX14/2920Z TN03/3012Z

Example: see airport list